Time;durP1;ratioP1;P1;durP2;ratioP2;P2;SDS_P1;SDS_P2;PMS_P1;PMS_P2;Temp;Humidity;BMP_temperature;BMP_pressure;BME280_temperature;BME280_humidity;BME280_pressure;Samples;Min_cycle;Max_cycle;Signal;HPM_P1;HPM_P2
2023/12/06 00:01:15;;;;;;;37.55;17.48;;;0.90;99.90;;;;;;4132927;28;20045;-78
2023/12/06 00:03:17;;;;;;;34.20;16.15;;;2.00;99.90;;;;;;4144901;28;20111;-79
2023/12/06 00:05:19;;;;;;;35.08;15.23;;;1.00;99.90;;;;;;4144545;28;20453;-79
2023/12/06 00:07:20;;;;;;;36.95;16.00;;;1.00;99.90;;;;;;4143583;28;20399;-79
2023/12/06 00:09:28;;;;;;;34.83;15.60;;;1.00;99.90;;;;;;4143592;28;20613;-79
2023/12/06 00:11:29;;;;;;;37.80;17.55;;;1.30;99.90;;;;;;4134858;28;20042;-79
2023/12/06 00:13:29;;;;;;;33.50;15.35;;;1.60;99.90;;;;;;4125974;28;20392;-79
2023/12/06 00:15:32;;;;;;;39.00;16.58;;;0.50;99.90;;;;;;4126878;28;20081;-79
2023/12/06 00:17:33;;;;;;;35.67;16.75;;;1.60;99.90;;;;;;4117594;28;20050;-79
2023/12/06 00:19:33;;;;;;;37.92;17.00;;;1.00;99.90;;;;;;4109549;29;20043;-79
2023/12/06 00:21:38;;;;;;;33.67;15.20;;;1.00;99.90;;;;;;4119064;28;20050;-79
2023/12/06 00:23:46;;;;;;;36.20;17.02;;;0.40;99.90;;;;;;4126408;28;20050;-79
2023/12/06 00:25:48;;;;;;;36.90;16.40;;;1.60;99.90;;;;;;4125592;28;20118;-79
2023/12/06 00:27:48;;;;;;;38.42;16.85;;;1.00;99.90;;;;;;4126208;28;20043;-79
2023/12/06 00:29:51;;;;;;;36.22;16.42;;;1.00;99.90;;;;;;4125193;28;20050;-79
2023/12/06 00:31:54;;;;;;;40.22;16.33;;;1.00;99.90;;;;;;4125433;28;20042;-79
2023/12/06 00:33:55;;;;;;;42.25;17.73;;;1.00;99.90;;;;;;4140389;28;20053;-79
2023/12/06 00:35:55;;;;;;;37.97;17.48;;;1.00;99.90;;;;;;4123859;28;20054;-79
2023/12/06 00:37:56;;;;;;;37.60;17.05;;;1.00;99.90;;;;;;4124663;28;20047;-79
2023/12/06 00:39:57;;;;;;;33.42;15.57;;;1.40;99.90;;;;;;4123751;28;20086;-79
2023/12/06 00:41:57;;;;;;;33.83;16.17;;;1.10;99.90;;;;;;4123681;28;20050;-79
2023/12/06 00:44:01;;;;;;;38.35;17.60;;;1.10;99.90;;;;;;4128334;28;20053;-79
2023/12/06 00:46:09;;;;;;;37.05;16.17;;;1.00;99.90;;;;;;4127157;28;20103;-80
2023/12/06 00:48:09;;;;;;;35.30;16.33;;;1.10;99.90;;;;;;4124353;28;20198;-79
2023/12/06 00:50:16;;;;;;;35.38;16.80;;;1.10;99.90;;;;;;4124672;28;20050;-79
2023/12/06 00:52:17;;;;;;;42.95;16.98;;;1.10;99.90;;;;;;4124603;28;20122;-79
2023/12/06 00:54:18;;;;;;;39.85;16.85;;;1.10;99.90;;;;;;4124222;28;20043;-79
2023/12/06 00:56:20;;;;;;;40.35;16.77;;;2.50;99.90;;;;;;4125030;28;20039;-79
2023/12/06 00:58:22;;;;;;;39.85;16.65;;;1.10;99.90;;;;;;4124141;28;20054;-79
2023/12/06 01:00:23;;;;;;;36.35;17.30;;;1.10;99.90;;;;;;4124742;28;20042;-79
2023/12/06 01:02:29;;;;;;;41.53;17.80;;;1.10;99.90;;;;;;4124728;28;20047;-79
2023/12/06 01:04:37;;;;;;;42.00;17.75;;;0.70;99.90;;;;;;4124733;28;20046;-79
2023/12/06 01:06:40;;;;;;;35.75;17.55;;;1.10;99.90;;;;;;4125708;28;20114;-79
2023/12/06 01:08:44;;;;;;;35.03;16.20;;;1.10;99.90;;;;;;4138351;28;20068;-80
2023/12/06 01:10:45;;;;;;;39.00;17.83;;;1.10;99.90;;;;;;4124464;28;20043;-79
2023/12/06 01:12:45;;;;;;;40.05;17.92;;;1.10;99.90;;;;;;4124077;28;20051;-79
2023/12/06 01:14:46;;;;;;;47.95;18.45;;;1.10;99.90;;;;;;4124123;28;20062;-79
2023/12/06 01:16:48;;;;;;;36.35;17.25;;;1.80;99.90;;;;;;4124633;28;20495;-79
2023/12/06 01:18:49;;;;;;;39.15;17.85;;;1.70;99.90;;;;;;4125027;28;20121;-79
2023/12/06 01:20:51;;;;;;;41.20;16.95;;;1.00;99.90;;;;;;4124519;28;20039;-80
2023/12/06 01:22:54;;;;;;;35.22;15.70;;;1.10;99.90;;;;;;4125000;28;20120;-79
2023/12/06 01:24:58;;;;;;;36.80;15.95;;;1.10;99.90;;;;;;4124685;28;20042;-80
2023/12/06 01:27:00;;;;;;;36.35;16.95;;;1.10;99.90;;;;;;4125119;28;20093;-79
2023/12/06 01:29:04;;;;;;;36.90;17.00;;;1.00;99.90;;;;;;4124208;28;20057;-79
2023/12/06 01:31:05;;;;;;;43.47;17.65;;;1.00;99.90;;;;;;4124393;28;20451;-79
2023/12/06 01:33:09;;;;;;;41.88;17.30;;;1.00;99.90;;;;;;4124705;28;20046;-80
2023/12/06 01:35:11;;;;;;;44.05;18.00;;;1.00;99.90;;;;;;4124855;28;20042;-79
2023/12/06 01:37:18;;;;;;;40.63;17.02;;;1.00;99.90;;;;;;4124921;28;20082;-79
2023/12/06 01:39:20;;;;;;;38.05;16.25;;;2.50;99.90;;;;;;4125375;28;20077;-80
2023/12/06 01:41:22;;;;;;;41.15;17.67;;;0.70;99.90;;;;;;4125187;28;20400;-80
2023/12/06 01:43:24;;;;;;;38.67;16.65;;;1.00;99.90;;;;;;4124107;28;20054;-79
2023/12/06 01:45:26;;;;;;;41.83;16.08;;;1.00;99.90;;;;;;4108641;28;20431;-79
2023/12/06 01:47:30;;;;;;;36.25;16.38;;;1.00;99.90;;;;;;4117179;28;20076;-80
2023/12/06 01:49:31;;;;;;;35.45;15.98;;;1.60;99.90;;;;;;4124087;28;20043;-80
2023/12/06 01:51:32;;;;;;;37.60;17.15;;;1.00;99.90;;;;;;4130109;28;20061;-80
2023/12/06 01:53:34;;;;;;;33.78;14.73;;;1.10;99.90;;;;;;4130928;28;20078;-80
2023/12/06 01:55:35;;;;;;;35.85;16.15;;;1.00;99.90;;;;;;4124191;28;20062;-80
2023/12/06 01:57:39;;;;;;;42.83;15.45;;;1.00;99.90;;;;;;4124637;28;20047;-80
2023/12/06 01:59:43;;;;;;;34.40;15.25;;;1.00;99.90;;;;;;4124650;28;20395;-80
2023/12/06 02:01:44;;;;;;;39.10;15.43;;;1.00;99.90;;;;;;4124235;28;20053;-80
2023/12/06 02:03:45;;;;;;;32.17;14.32;;;1.10;99.90;;;;;;4124314;28;20487;-80
2023/12/06 02:05:47;;;;;;;32.13;13.13;;;1.10;99.90;;;;;;4124410;28;20058;-80
2023/12/06 02:07:56;;;;;;;28.50;13.25;;;1.10;99.90;;;;;;4124139;28;20443;-80
2023/12/06 02:09:57;;;;;;;27.92;13.77;;;1.10;99.90;;;;;;4123580;28;20519;-80
2023/12/06 02:12:01;;;;;;;28.15;13.40;;;1.40;99.90;;;;;;4123300;28;20058;-80
2023/12/06 02:14:04;;;;;;;31.05;14.18;;;1.90;99.90;;;;;;4123314;28;20050;-80
2023/12/06 02:16:07;;;;;;;29.95;13.48;;;1.10;99.90;;;;;;4124088;28;20082;-80
2023/12/06 02:18:07;;;;;;;27.63;13.18;;;1.10;99.90;;;;;;4122884;28;20051;-80
2023/12/06 02:20:10;;;;;;;29.38;12.93;;;1.10;99.90;;;;;;4123277;28;20550;-80
2023/12/06 02:22:12;;;;;;;27.33;12.73;;;1.10;99.90;;;;;;4124253;28;20053;-80
2023/12/06 02:24:18;;;;;;;25.52;11.52;;;1.40;99.90;;;;;;4122958;28;20049;-79
2023/12/06 02:26:20;;;;;;;25.90;11.57;;;1.10;99.90;;;;;;4124273;28;20055;-79
2023/12/06 02:28:23;;;;;;;23.40;11.13;;;1.20;99.90;;;;;;4124105;28;20189;-79
2023/12/06 02:30:23;;;;;;;23.80;11.25;;;1.10;99.90;;;;;;4123873;28;20070;-79
2023/12/06 02:32:24;;;;;;;24.15;11.55;;;1.20;99.90;;;;;;4123615;28;20046;-80
2023/12/06 02:34:26;;;;;;;22.23;10.77;;;1.20;99.90;;;;;;4123224;28;20070;-79
2023/12/06 02:36:29;;;;;;;18.70;10.48;;;1.20;99.90;;;;;;4123123;28;20053;-80
2023/12/06 02:38:32;;;;;;;22.42;10.20;;;1.20;99.90;;;;;;4123154;28;20047;-79
2023/12/06 02:40:35;;;;;;;17.83;9.85;;;1.20;99.90;;;;;;4123395;28;20126;-79
2023/12/06 02:42:36;;;;;;;18.98;10.15;;;1.20;99.90;;;;;;4123700;28;20122;-79
2023/12/06 02:44:43;;;;;;;21.40;9.65;;;1.20;99.90;;;;;;4123013;28;20102;-79
2023/12/06 02:46:45;;;;;;;18.70;9.55;;;1.20;99.90;;;;;;4123471;28;20109;-79
2023/12/06 02:48:53;;;;;;;18.98;9.25;;;1.70;99.90;;;;;;4123263;28;20043;-79
2023/12/06 02:50:54;;;;;;;16.25;8.85;;;1.30;99.90;;;;;;4123629;28;20039;-79
2023/12/06 02:52:54;;;;;;;17.08;9.15;;;1.30;99.90;;;;;;4123296;28;20074;-80
2023/12/06 02:54:56;;;;;;;14.80;8.50;;;1.30;99.90;;;;;;4122842;28;20047;-79
2023/12/06 02:56:58;;;;;;;16.98;7.95;;;1.30;99.90;;;;;;4122189;28;20049;-79
2023/12/06 02:58:59;;;;;;;14.85;7.57;;;1.30;99.90;;;;;;4123102;28;20506;-80
2023/12/06 03:01:01;;;;;;;15.65;7.05;;;1.30;99.90;;;;;;4123284;28;20443;-79
2023/12/06 03:03:03;;;;;;;16.95;8.02;;;1.30;99.90;;;;;;4122359;28;20055;-79
2023/12/06 03:05:04;;;;;;;14.85;7.80;;;1.30;99.90;;;;;;4123554;28;20472;-79
2023/12/06 03:07:04;;;;;;;14.60;8.35;;;1.30;99.90;;;;;;4123638;28;20047;-79
2023/12/06 03:09:05;;;;;;;19.05;8.25;;;1.50;99.90;;;;;;4123340;28;20070;-79
2023/12/06 03:11:08;;;;;;;14.48;7.82;;;1.30;99.90;;;;;;4123415;28;20102;-79
2023/12/06 03:13:08;;;;;;;14.10;7.55;;;1.20;99.90;;;;;;4122661;28;20121;-79
2023/12/06 03:15:11;;;;;;;16.48;8.32;;;1.30;99.90;;;;;;4121501;28;20046;-79
2023/12/06 03:17:13;;;;;;;15.98;8.23;;;1.30;99.90;;;;;;4123080;28;20039;-79
2023/12/06 03:19:15;;;;;;;16.38;7.57;;;1.30;99.90;;;;;;4123495;28;20530;-79
2023/12/06 03:21:16;;;;;;;14.10;7.32;;;1.20;99.90;;;;;;4123432;28;20051;-79
2023/12/06 03:23:18;;;;;;;15.20;7.43;;;1.40;99.90;;;;;;4122484;28;20046;-80
2023/12/06 03:25:25;;;;;;;13.63;7.45;;;1.30;99.90;;;;;;4123433;28;20054;-79
2023/12/06 03:27:27;;;;;;;15.98;7.13;;;1.70;99.90;;;;;;4123512;28;20077;-79
2023/12/06 03:29:41;;;;;;;12.18;6.88;;;1.30;99.90;;;;;;4122727;28;20592;-79
2023/12/06 03:31:44;;;;;;;13.50;7.38;;;2.70;99.90;;;;;;4123315;28;20043;-79
2023/12/06 03:33:45;;;;;;;15.07;7.50;;;1.90;99.90;;;;;;4123114;28;20050;-79
2023/12/06 03:35:47;;;;;;;14.45;7.40;;;1.30;99.90;;;;;;4124659;28;20098;-79
2023/12/06 03:37:49;;;;;;;14.38;8.00;;;1.30;99.90;;;;;;4126716;28;20051;-79
2023/12/06 03:39:50;;;;;;;15.00;7.57;;;1.30;99.90;;;;;;4126127;28;20066;-79
2023/12/06 03:41:51;;;;;;;15.15;7.57;;;1.30;99.90;;;;;;4126232;28;20046;-79
2023/12/06 03:43:52;;;;;;;16.08;7.35;;;1.30;99.90;;;;;;4127051;28;20054;-79
2023/12/06 03:45:53;;;;;;;13.80;6.82;;;1.30;99.90;;;;;;4126026;28;20054;-79
2023/12/06 03:47:55;;;;;;;15.15;7.15;;;1.30;99.90;;;;;;4126592;28;20043;-79
2023/12/06 03:49:56;;;;;;;11.80;6.97;;;1.30;99.90;;;;;;4126372;28;20464;-79
2023/12/06 03:51:56;;;;;;;13.05;7.30;;;1.30;99.90;;;;;;4125962;28;20043;-79
2023/12/06 03:53:59;;;;;;;13.18;7.38;;;1.30;99.90;;;;;;4126297;28;20499;-79
2023/12/06 03:56:01;;;;;;;12.60;7.20;;;1.30;99.90;;;;;;4125534;28;20522;-79
2023/12/06 03:58:04;;;;;;;13.23;7.45;;;1.30;99.90;;;;;;4125627;28;20051;-79
2023/12/06 04:00:07;;;;;;;14.73;7.53;;;1.30;99.90;;;;;;4125643;28;20046;-79
2023/12/06 04:02:08;;;;;;;12.15;6.85;;;1.30;99.90;;;;;;4125212;28;20039;-79
2023/12/06 04:04:09;;;;;;;16.63;7.20;;;1.30;99.90;;;;;;4126084;28;20057;-79
2023/12/06 04:06:11;;;;;;;15.15;6.95;;;1.30;99.90;;;;;;4124538;28;20078;-79
2023/12/06 04:08:11;;;;;;;13.65;7.60;;;1.30;99.90;;;;;;4125736;28;20126;-79
2023/12/06 04:10:12;;;;;;;16.35;7.88;;;1.30;99.90;;;;;;4124826;28;20089;-79
2023/12/06 04:12:14;;;;;;;13.07;7.35;;;1.30;99.90;;;;;;4133787;28;20101;-79
2023/12/06 04:14:14;;;;;;;10.38;6.18;;;1.40;99.90;;;;;;4140619;28;20062;-79
2023/12/06 04:16:16;;;;;;;13.13;7.35;;;1.30;99.90;;;;;;4127965;28;20550;-79
2023/12/06 04:18:22;;;;;;;12.50;6.63;;;1.30;99.90;;;;;;4126076;28;20047;-79
2023/12/06 04:20:25;;;;;;;13.05;6.43;;;1.40;99.90;;;;;;4120987;28;20121;-79
2023/12/06 04:22:26;;;;;;;11.75;6.35;;;2.00;99.90;;;;;;4125507;28;20369;-80
2023/12/06 04:24:30;;;;;;;14.07;7.07;;;1.70;99.90;;;;;;4123127;28;20471;-80
2023/12/06 04:26:30;;;;;;;15.30;7.00;;;2.70;99.90;;;;;;4123183;28;20162;-80
2023/12/06 04:28:31;;;;;;;12.05;6.25;;;1.40;99.90;;;;;;4124658;28;20452;-80
2023/12/06 04:30:32;;;;;;;12.45;6.05;;;1.40;99.90;;;;;;4124714;28;20042;-80
2023/12/06 04:32:33;;;;;;;12.07;6.57;;;1.40;99.90;;;;;;4124755;28;20047;-80
2023/12/06 04:34:45;;;;;;;12.75;6.57;;;1.40;99.90;;;;;;4124828;28;20051;-80
2023/12/06 04:36:46;;;;;;;14.27;7.30;;;1.40;99.90;;;;;;4124594;28;20066;-80
2023/12/06 04:38:47;;;;;;;14.32;6.85;;;1.40;99.90;;;;;;4124410;28;20051;-79
2023/12/06 04:40:47;;;;;;;12.52;7.13;;;1.40;99.90;;;;;;4124058;28;20050;-80
2023/12/06 04:42:54;;;;;;;13.95;6.68;;;1.40;99.90;;;;;;4124214;28;20472;-79
2023/12/06 04:44:56;;;;;;;13.02;6.82;;;1.40;99.90;;;;;;4125261;28;20078;-80
2023/12/06 04:46:56;;;;;;;10.63;6.22;;;1.40;99.90;;;;;;4130737;28;20046;-77
2023/12/06 04:48:58;;;;;;;12.45;6.55;;;1.40;99.90;;;;;;4145745;28;20125;-80
2023/12/06 04:50:59;;;;;;;12.75;6.95;;;1.50;99.90;;;;;;4142924;28;20046;-80
2023/12/06 04:52:59;;;;;;;11.27;6.35;;;1.40;99.90;;;;;;4143061;28;20050;-80
2023/12/06 04:55:04;;;;;;;11.23;6.88;;;1.40;99.90;;;;;;4132165;28;20077;-80
2023/12/06 04:57:06;;;;;;;10.98;6.35;;;1.40;99.90;;;;;;4125667;28;20066;-80
2023/12/06 04:59:07;;;;;;;13.73;6.55;;;1.40;99.90;;;;;;4125715;28;20415;-80
2023/12/06 05:01:14;;;;;;;12.98;6.88;;;1.90;99.90;;;;;;4125961;28;20550;-80
2023/12/06 05:03:14;;;;;;;17.95;6.78;;;2.30;99.90;;;;;;4124697;28;20074;-80
2023/12/06 05:05:15;;;;;;;12.75;6.57;;;1.60;99.90;;;;;;4125011;28;20074;-80
2023/12/06 05:07:16;;;;;;;13.88;6.90;;;1.40;99.90;;;;;;4125007;28;20101;-80
2023/12/06 05:09:23;;;;;;;13.52;6.65;;;1.80;99.90;;;;;;4124575;28;20054;-80
2023/12/06 05:11:26;;;;;;;12.40;6.80;;;1.40;99.90;;;;;;4124138;28;20106;-80
2023/12/06 05:13:27;;;;;;;13.27;7.35;;;1.50;99.90;;;;;;4124154;28;20050;-80
2023/12/06 05:15:27;;;;;;;13.30;7.00;;;2.50;99.90;;;;;;4123504;28;20573;-80
2023/12/06 05:17:29;;;;;;;13.25;7.22;;;1.50;99.90;;;;;;4124078;28;20047;-80
2023/12/06 05:19:30;;;;;;;15.68;7.70;;;1.50;99.90;;;;;;4123850;28;20038;-80
2023/12/06 05:21:32;;;;;;;12.75;7.30;;;1.50;99.90;;;;;;4124010;28;20049;-80
2023/12/06 05:23:36;;;;;;;13.43;7.65;;;1.90;99.90;;;;;;4123445;28;20058;-80
2023/12/06 05:25:37;;;;;;;14.82;7.78;;;1.50;99.90;;;;;;4123604;28;20076;-80
2023/12/06 05:27:38;;;;;;;16.15;7.28;;;1.50;99.90;;;;;;4124021;28;20074;-80
2023/12/06 05:29:38;;;;;;;13.45;6.40;;;1.50;99.90;;;;;;4123689;28;20038;-80
2023/12/06 05:31:39;;;;;;;13.38;6.90;;;2.30;99.90;;;;;;4123518;28;20125;-80
2023/12/06 05:33:40;;;;;;;13.18;6.35;;;1.50;99.90;;;;;;4124302;28;20058;-80
2023/12/06 05:35:41;;;;;;;13.43;7.45;;;1.50;99.90;;;;;;4123653;28;20079;-80
2023/12/06 05:37:43;;;;;;;12.30;7.22;;;1.50;99.90;;;;;;4124040;28;20047;-80
2023/12/06 05:39:45;;;;;;;15.60;7.32;;;1.50;99.90;;;;;;4122717;28;20055;-80
2023/12/06 05:41:45;;;;;;;12.05;6.40;;;1.50;99.90;;;;;;4125352;28;20089;-80
2023/12/06 05:43:47;;;;;;;12.30;6.90;;;1.50;99.90;;;;;;4123708;28;20046;-80
2023/12/06 05:45:49;;;;;;;10.75;5.85;;;1.00;99.90;;;;;;4122348;28;20051;-79
2023/12/06 05:47:50;;;;;;;14.85;7.57;;;1.50;99.90;;;;;;4123213;28;20047;-80
2023/12/06 05:49:52;;;;;;;13.98;7.03;;;1.50;99.90;;;;;;4122321;28;20470;-80
2023/12/06 05:51:53;;;;;;;14.70;7.20;;;1.90;99.90;;;;;;4132843;28;20128;-80
2023/12/06 05:53:54;;;;;;;14.07;6.60;;;1.50;99.90;;;;;;4140230;28;20046;-80
2023/12/06 05:55:56;;;;;;;11.80;6.05;;;2.10;99.90;;;;;;4138937;28;20419;-80
2023/12/06 05:57:57;;;;;;;11.32;6.47;;;1.50;99.90;;;;;;4123602;28;20479;-80
2023/12/06 06:00:05;;;;;;;13.10;6.03;;;1.50;99.90;;;;;;4123950;28;20058;-80
2023/12/06 06:02:07;;;;;;;11.02;6.03;;;1.50;99.90;;;;;;4133578;28;20054;-80
2023/12/06 06:04:08;;;;;;;13.57;6.72;;;1.50;99.90;;;;;;4139963;28;20046;-80
2023/12/06 06:06:10;;;;;;;11.43;5.97;;;1.90;99.90;;;;;;4139835;28;20050;-80
2023/12/06 06:08:11;;;;;;;14.43;6.90;;;2.70;99.90;;;;;;4138321;28;20110;-80
2023/12/06 06:10:12;;;;;;;11.40;6.13;;;1.40;99.90;;;;;;4123898;28;20035;-80
2023/12/06 06:12:13;;;;;;;10.40;5.82;;;1.50;99.90;;;;;;4123365;28;20070;-80
2023/12/06 06:14:14;;;;;;;11.57;5.82;;;1.50;99.90;;;;;;4122662;28;20064;-80
2023/12/06 06:16:19;;;;;;;14.32;7.28;;;1.70;99.90;;;;;;4136489;28;20464;-80
2023/12/06 06:18:20;;;;;;;14.48;6.05;;;1.50;99.90;;;;;;4123302;28;20047;-80
2023/12/06 06:20:21;;;;;;;11.43;5.78;;;1.10;99.90;;;;;;4123746;28;20050;-80
2023/12/06 06:22:22;;;;;;;11.98;6.63;;;1.50;99.90;;;;;;4123597;28;20518;-80
2023/12/06 06:24:22;;;;;;;12.43;6.05;;;1.50;99.90;;;;;;4122979;28;20047;-80
2023/12/06 06:26:24;;;;;;;10.90;5.95;;;1.60;99.90;;;;;;4122278;28;20054;-79
2023/12/06 06:28:28;;;;;;;12.35;5.90;;;1.60;99.90;;;;;;4122550;28;20447;-79
2023/12/06 06:30:30;;;;;;;12.38;6.13;;;1.60;99.90;;;;;;4122579;28;20074;-80
2023/12/06 06:32:30;;;;;;;11.68;6.28;;;1.60;99.90;;;;;;4122103;28;20051;-80
2023/12/06 06:34:31;;;;;;;14.07;6.40;;;1.60;99.90;;;;;;4122179;28;20479;-80
2023/12/06 06:36:32;;;;;;;15.45;6.63;;;1.60;99.90;;;;;;4121063;28;20054;-80
2023/12/06 06:38:33;;;;;;;13.20;6.68;;;1.60;99.90;;;;;;4120561;28;20050;-80
2023/12/06 06:40:34;;;;;;;13.20;7.03;;;1.60;99.90;;;;;;4122090;28;20154;-79
2023/12/06 06:42:35;;;;;;;11.35;6.10;;;1.70;99.90;;;;;;4121170;28;20064;-80
2023/12/06 06:44:37;;;;;;;11.23;6.35;;;1.60;99.90;;;;;;4121583;28;20053;-79
2023/12/06 06:46:39;;;;;;;14.85;7.07;;;1.70;99.90;;;;;;4121406;28;20447;-79
2023/12/06 06:48:44;;;;;;;11.25;6.18;;;1.70;99.90;;;;;;4121352;28;20055;-79
2023/12/06 06:50:45;;;;;;;9.10;5.88;;;2.90;99.90;;;;;;4121349;28;20047;-79
2023/12/06 06:52:46;;;;;;;15.02;6.75;;;1.70;99.90;;;;;;4136744;28;20053;-79
2023/12/06 06:54:49;;;;;;;12.23;6.70;;;1.70;99.90;;;;;;4132065;28;20053;-79
2023/12/06 06:56:50;;;;;;;13.50;6.65;;;2.50;99.90;;;;;;4105192;28;20054;-79
2023/12/06 06:58:52;;;;;;;10.07;6.00;;;2.30;99.90;;;;;;4104943;28;20412;-79
2023/12/06 07:00:54;;;;;;;11.73;6.85;;;1.80;99.90;;;;;;4121732;28;20127;-79
2023/12/06 07:03:01;;;;;;;12.98;6.50;;;1.80;99.90;;;;;;4119483;28;20114;-79
2023/12/06 07:05:03;;;;;;;10.77;6.82;;;2.40;99.90;;;;;;4134270;28;20042;-80
2023/12/06 07:07:04;;;;;;;10.63;5.80;;;1.80;99.90;;;;;;4121866;28;20336;-81
2023/12/06 07:09:06;;;;;;;12.50;5.43;;;1.80;99.90;;;;;;4120769;28;20105;-80
2023/12/06 07:11:10;;;;;;;10.88;6.90;;;1.80;99.90;;;;;;4120733;28;20557;-80
2023/12/06 07:13:11;;;;;;;12.63;6.28;;;1.80;99.90;;;;;;4120256;28;20141;-81
2023/12/06 07:15:14;;;;;;;12.13;6.00;;;3.20;99.90;;;;;;4121227;28;20051;-81
2023/12/06 07:17:16;;;;;;;12.75;6.72;;;3.10;99.90;;;;;;4121237;28;20050;-80
2023/12/06 07:19:17;;;;;;;12.02;6.38;;;1.80;99.90;;;;;;4119572;28;20054;-80
2023/12/06 07:21:18;;;;;;;10.45;5.97;;;1.40;99.90;;;;;;4120062;28;20078;-80
2023/12/06 07:23:20;;;;;;;10.55;5.63;;;2.30;99.90;;;;;;4120671;28;20047;-81
2023/12/06 07:25:22;;;;;;;13.30;6.75;;;1.80;99.90;;;;;;4120452;28;20058;-80
2023/12/06 07:27:23;;;;;;;12.55;6.68;;;3.30;99.90;;;;;;4119175;28;20047;-79
2023/12/06 07:29:27;;;;;;;10.25;6.05;;;1.90;99.90;;;;;;4121228;28;20035;-79
2023/12/06 07:31:28;;;;;;;10.68;6.22;;;1.80;99.90;;;;;;4135844;28;20049;-79
2023/12/06 07:33:30;;;;;;;11.43;6.22;;;1.90;99.90;;;;;;4122700;28;20055;-79
2023/12/06 07:35:33;;;;;;;11.82;6.45;;;2.90;99.90;;;;;;4120216;28;20062;-79
2023/12/06 07:37:33;;;;;;;11.63;6.20;;;2.20;99.90;;;;;;4123875;28;20094;-79
2023/12/06 07:39:35;;;;;;;12.63;6.75;;;1.80;99.90;;;;;;4120707;28;20046;-79
2023/12/06 07:41:36;;;;;;;12.05;6.45;;;1.80;99.90;;;;;;4121768;28;20082;-79
2023/12/06 07:43:39;;;;;;;11.80;6.55;;;1.90;99.90;;;;;;4130759;28;20067;-79
2023/12/06 07:45:40;;;;;;;10.63;6.88;;;2.90;99.90;;;;;;4127737;28;20074;-79
2023/12/06 07:47:41;;;;;;;15.57;7.15;;;1.90;99.90;;;;;;4122175;28;20066;-80
2023/12/06 07:49:45;;;;;;;11.00;6.72;;;2.10;99.90;;;;;;4139439;28;20042;-79
2023/12/06 07:51:47;;;;;;;10.25;6.35;;;1.90;99.90;;;;;;4147431;28;20037;-79
2023/12/06 07:53:51;;;;;;;12.25;6.35;;;1.80;99.90;;;;;;4141046;28;20431;-79
2023/12/06 07:55:55;;;;;;;14.43;6.78;;;3.20;99.90;;;;;;4140145;28;20384;-80
2023/12/06 07:57:55;;;;;;;10.55;6.82;;;1.90;99.90;;;;;;4136361;28;20073;-78
2023/12/06 07:59:58;;;;;;;10.10;6.30;;;1.90;99.90;;;;;;4122922;28;20105;-79
2023/12/06 08:01:59;;;;;;;12.65;5.70;;;1.90;99.90;;;;;;4122476;28;20043;-78
2023/12/06 08:04:04;;;;;;;12.63;6.93;;;1.90;99.90;;;;;;4122423;28;20101;-78
2023/12/06 08:06:06;;;;;;;11.60;6.70;;;3.30;99.90;;;;;;4121401;28;20069;-78
2023/12/06 08:08:08;;;;;;;12.18;6.97;;;1.90;99.90;;;;;;4121265;28;20542;-78
2023/12/06 08:10:12;;;;;;;12.77;6.75;;;2.00;99.90;;;;;;4121036;28;20392;-78
2023/12/06 08:12:13;;;;;;;13.65;6.55;;;3.40;99.90;;;;;;4120610;28;20126;-79
2023/12/06 08:14:14;;;;;;;12.38;7.30;;;2.00;99.90;;;;;;4117184;28;20050;-80
2023/12/06 08:16:20;;;;;;;13.63;7.07;;;2.00;99.90;;;;;;4120682;28;20472;-81
2023/12/06 08:18:29;;;;;;;11.25;6.57;;;2.00;99.90;;;;;;4122029;28;20051;-80
2023/12/06 08:20:29;;;;;;;12.90;6.95;;;2.00;99.90;;;;;;4120516;28;20505;-80
2023/12/06 08:22:32;;;;;;;12.95;7.55;;;2.90;99.90;;;;;;4121481;28;20071;-80
2023/12/06 08:24:33;;;;;;;13.00;6.72;;;2.00;99.90;;;;;;4122881;28;20066;-81
2023/12/06 08:26:35;;;;;;;11.93;6.82;;;2.90;99.90;;;;;;4121367;28;20042;-81
2023/12/06 08:28:36;;;;;;;12.90;6.95;;;2.00;99.90;;;;;;4122798;28;20440;-81
2023/12/06 08:30:37;;;;;;;12.90;7.80;;;2.00;99.90;;;;;;4122876;28;20050;-81
2023/12/06 08:32:38;;;;;;;11.77;6.85;;;2.00;99.90;;;;;;4122941;28;20055;-81
2023/12/06 08:34:39;;;;;;;14.50;7.47;;;2.00;99.90;;;;;;4123615;28;20043;-81
2023/12/06 08:36:46;;;;;;;15.00;7.65;;;2.00;99.90;;;;;;4112209;28;20117;-81
2023/12/06 08:38:47;;;;;;;10.38;6.38;;;2.10;99.90;;;;;;4134823;28;20106;-81
2023/12/06 08:40:50;;;;;;;10.75;6.72;;;2.00;99.90;;;;;;4138228;28;20061;-81
2023/12/06 08:42:50;;;;;;;16.42;6.60;;;2.40;99.90;;;;;;4127983;28;20053;-81
2023/12/06 08:44:55;;;;;;;15.07;6.80;;;2.10;99.90;;;;;;4122630;28;20652;-81
2023/12/06 08:46:58;;;;;;;14.13;6.68;;;2.10;99.90;;;;;;4121703;28;20480;-81
2023/12/06 08:48:58;;;;;;;12.75;6.70;;;2.10;99.90;;;;;;4122265;28;20046;-81
2023/12/06 08:51:00;;;;;;;14.77;6.47;;;2.10;99.90;;;;;;4122997;28;20038;-81
2023/12/06 08:53:01;;;;;;;16.27;7.45;;;2.10;99.90;;;;;;4122812;28;20101;-80
2023/12/06 08:55:04;;;;;;;14.18;6.80;;;2.10;99.90;;;;;;4122910;28;20440;-80
2023/12/06 08:57:07;;;;;;;13.43;7.47;;;2.10;99.90;;;;;;4122990;28;20134;-80
2023/12/06 08:59:08;;;;;;;10.20;6.38;;;2.10;99.90;;;;;;4122938;28;20047;-79
2023/12/06 09:01:09;;;;;;;12.93;7.07;;;2.10;99.90;;;;;;4123164;28;20118;-80
2023/12/06 09:03:12;;;;;;;9.68;6.07;;;2.20;99.90;;;;;;4123500;28;20047;-79
2023/12/06 09:05:13;;;;;;;11.73;6.55;;;3.00;99.90;;;;;;4123063;28;20050;-79
2023/12/06 09:07:15;;;;;;;15.77;7.07;;;2.20;99.90;;;;;;4122669;28;20133;-80
2023/12/06 09:09:17;;;;;;;10.93;6.65;;;2.10;99.90;;;;;;4122085;28;20105;-80
2023/12/06 09:11:20;;;;;;;16.65;6.65;;;2.20;99.90;;;;;;4122450;28;20411;-80
2023/12/06 09:13:20;;;;;;;13.40;6.60;;;3.10;99.90;;;;;;4121692;28;20505;-80
2023/12/06 09:15:21;;;;;;;10.63;6.15;;;2.40;99.90;;;;;;4121818;28;20055;-80
2023/12/06 09:17:21;;;;;;;10.07;5.70;;;2.20;99.90;;;;;;4122200;28;20039;-80
2023/12/06 09:19:23;;;;;;;9.70;5.95;;;2.20;99.90;;;;;;4122047;28;20129;-80
2023/12/06 09:21:39;;;;;;;11.43;6.13;;;2.20;99.90;;;;;;4122325;28;20046;-80
2023/12/06 09:23:41;;;;;;;9.55;6.35;;;2.90;99.90;;;;;;4108171;28;20459;-80
2023/12/06 09:25:42;;;;;;;10.27;6.25;;;2.40;99.90;;;;;;4122416;28;20039;-80
2023/12/06 09:27:43;;;;;;;10.27;6.82;;;2.30;99.90;;;;;;4124147;28;20057;-80
2023/12/06 09:29:45;;;;;;;10.38;6.53;;;2.30;99.90;;;;;;4121949;28;20146;-80
2023/12/06 09:31:45;;;;;;;11.25;6.43;;;2.30;99.90;;;;;;4120742;28;20109;-80
2023/12/06 09:33:47;;;;;;;13.98;5.40;;;2.30;99.90;;;;;;4121109;28;20070;-80
2023/12/06 09:35:50;;;;;;;8.73;5.85;;;2.30;99.90;;;;;;4122227;28;20073;-79
2023/12/06 09:37:51;;;;;;;14.95;5.82;;;2.30;99.90;;;;;;4122745;28;20049;-79
2023/12/06 09:39:52;;;;;;;10.77;5.57;;;2.30;99.90;;;;;;4122551;28;20074;-79
2023/12/06 09:41:53;;;;;;;9.48;4.75;;;2.30;99.90;;;;;;4121527;28;20057;-79
2023/12/06 09:43:54;;;;;;;8.18;5.13;;;2.30;99.90;;;;;;4121636;28;20054;-79
2023/12/06 09:45:58;;;;;;;13.40;5.97;;;2.30;99.90;;;;;;4121054;28;20069;-80
2023/12/06 09:48:00;;;;;;;11.95;6.20;;;2.30;99.90;;;;;;4122226;28;20042;-80
2023/12/06 09:50:01;;;;;;;8.75;5.10;;;3.10;99.90;;;;;;4121676;28;20043;-79
2023/12/06 09:52:17;;;;;;;9.98;6.22;;;2.30;99.90;;;;;;4121912;28;20043;-79
2023/12/06 09:54:20;;;;;;;10.45;5.72;;;2.30;99.90;;;;;;4121775;28;20051;-80
2023/12/06 09:56:23;;;;;;;10.98;5.50;;;2.30;99.90;;;;;;4121391;28;20047;-79
2023/12/06 09:58:25;;;;;;;7.63;4.85;;;1.90;99.90;;;;;;4121999;28;20055;-80
2023/12/06 10:00:25;;;;;;;11.50;5.45;;;2.60;99.90;;;;;;4121784;28;20057;-79
2023/12/06 10:02:26;;;;;;;9.43;5.97;;;2.30;99.90;;;;;;4120710;28;20043;-80
2023/12/06 10:04:27;;;;;;;11.80;5.90;;;2.40;99.90;;;;;;4121490;28;20126;-80
2023/12/06 10:06:30;;;;;;;9.55;6.78;;;2.40;99.90;;;;;;4121242;28;20056;-80
2023/12/06 10:08:34;;;;;;;12.50;6.15;;;2.40;99.90;;;;;;4120728;28;20043;-80
2023/12/06 10:10:35;;;;;;;9.27;5.63;;;2.40;99.90;;;;;;4118284;28;20173;-79
2023/12/06 10:12:48;;;;;;;12.13;6.10;;;2.40;99.90;;;;;;4121986;28;20047;-80
2023/12/06 10:14:59;;;;;;;10.20;5.95;;;2.40;99.90;;;;;;4121399;28;20055;-79
2023/12/06 10:17:01;;;;;;;11.77;6.32;;;3.00;99.90;;;;;;4121181;28;20077;-80
2023/12/06 10:19:03;;;;;;;9.57;5.80;;;2.40;99.90;;;;;;4121763;28;20070;-80
2023/12/06 10:21:05;;;;;;;10.35;6.65;;;2.50;99.90;;;;;;4120385;28;20050;-79
2023/12/06 10:23:05;;;;;;;11.30;5.60;;;2.50;99.90;;;;;;4121134;28;20130;-79
2023/12/06 10:25:08;;;;;;;14.48;6.72;;;2.40;99.90;;;;;;4119824;28;20046;-80
2023/12/06 10:27:12;;;;;;;13.20;7.45;;;2.40;99.90;;;;;;4121392;28;20050;-80
2023/12/06 10:29:14;;;;;;;12.07;7.07;;;3.00;99.90;;;;;;4120507;28;20103;-80
2023/12/06 10:31:15;;;;;;;11.43;5.63;;;3.40;99.90;;;;;;4121307;28;20050;-80
2023/12/06 10:33:19;;;;;;;11.13;6.60;;;2.40;99.90;;;;;;4121459;28;20098;-79
2023/12/06 10:35:21;;;;;;;12.38;6.82;;;2.40;99.90;;;;;;4124394;28;20053;-80